sensor_id;sensor_type;location;lat;lon;timestamp;temperature;humidity
61392;DHT22;47261;52.892;5.738;2024-03-02T00:00:43;9.20;99.90
61392;DHT22;47261;52.892;5.738;2024-03-02T00:03:08;9.20;99.90
61392;DHT22;47261;52.892;5.738;2024-03-02T00:05:39;9.20;99.90
61392;DHT22;47261;52.892;5.738;2024-03-02T00:08:07;9.20;99.90
61392;DHT22;47261;52.892;5.738;2024-03-02T00:10:39;9.20;99.90
61392;DHT22;47261;52.892;5.738;2024-03-02T00:13:08;9.20;99.90
61392;DHT22;47261;52.892;5.738;2024-03-02T00:18:11;9.20;99.90
61392;DHT22;47261;52.892;5.738;2024-03-02T00:20:38;9.10;99.90
61392;DHT22;47261;52.892;5.738;2024-03-02T00:23:09;9.10;99.90
61392;DHT22;47261;52.892;5.738;2024-03-02T00:28:01;9.10;99.90
61392;DHT22;47261;52.892;5.738;2024-03-02T00:33:11;9.10;99.90
61392;DHT22;47261;52.892;5.738;2024-03-02T00:35:36;9.10;99.90
61392;DHT22;47261;52.892;5.738;2024-03-02T00:38:08;9.10;99.90
61392;DHT22;47261;52.892;5.738;2024-03-02T00:40:34;9.10;99.90
61392;DHT22;47261;52.892;5.738;2024-03-02T00:42:59;9.10;99.90
61392;DHT22;47261;52.892;5.738;2024-03-02T00:45:25;9.00;99.90
61392;DHT22;47261;52.892;5.738;2024-03-02T00:47:51;9.00;99.90
61392;DHT22;47261;52.892;5.738;2024-03-02T00:50:18;9.00;99.90
61392;DHT22;47261;52.892;5.738;2024-03-02T00:52:44;9.00;99.90
61392;DHT22;47261;52.892;5.738;2024-03-02T00:55:09;9.10;99.90
61392;DHT22;47261;52.892;5.738;2024-03-02T00:57:35;9.00;99.90
61392;DHT22;47261;52.892;5.738;2024-03-02T01:00:01;9.00;99.90
61392;DHT22;47261;52.892;5.738;2024-03-02T01:02:28;9.00;99.90
61392;DHT22;47261;52.892;5.738;2024-03-02T01:04:54;9.00;99.90
61392;DHT22;47261;52.892;5.738;2024-03-02T01:07:20;9.00;99.90
61392;DHT22;47261;52.892;5.738;2024-03-02T01:09:46;9.00;99.90
61392;DHT22;47261;52.892;5.738;2024-03-02T01:12:11;9.00;99.90
61392;DHT22;47261;52.892;5.738;2024-03-02T01:14:37;9.00;99.90
61392;DHT22;47261;52.892;5.738;2024-03-02T01:17:02;9.00;99.90
61392;DHT22;47261;52.892;5.738;2024-03-02T01:19:30;9.00;99.90
61392;DHT22;47261;52.892;5.738;2024-03-02T01:21:55;8.90;99.90
61392;DHT22;47261;52.892;5.738;2024-03-02T01:24:21;8.90;99.90
61392;DHT22;47261;52.892;5.738;2024-03-02T01:26:47;8.90;99.90
61392;DHT22;47261;52.892;5.738;2024-03-02T01:29:12;8.90;99.90
61392;DHT22;47261;52.892;5.738;2024-03-02T01:31:38;8.90;99.90
61392;DHT22;47261;52.892;5.738;2024-03-02T01:34:07;8.90;99.90
61392;DHT22;47261;52.892;5.738;2024-03-02T01:36:33;9.00;99.90
61392;DHT22;47261;52.892;5.738;2024-03-02T01:38:59;9.00;99.90
61392;DHT22;47261;52.892;5.738;2024-03-02T01:41:25;9.00;99.90
61392;DHT22;47261;52.892;5.738;2024-03-02T01:43:50;9.00;99.90
61392;DHT22;47261;52.892;5.738;2024-03-02T01:46:16;9.00;99.90
61392;DHT22;47261;52.892;5.738;2024-03-02T01:48:42;9.10;99.90
61392;DHT22;47261;52.892;5.738;2024-03-02T01:51:07;9.10;99.90
61392;DHT22;47261;52.892;5.738;2024-03-02T01:53:34;9.10;99.90
61392;DHT22;47261;52.892;5.738;2024-03-02T01:56:00;9.10;99.90
61392;DHT22;47261;52.892;5.738;2024-03-02T01:58:27;9.10;99.90
61392;DHT22;47261;52.892;5.738;2024-03-02T02:00:52;9.20;99.90
61392;DHT22;47261;52.892;5.738;2024-03-02T02:03:18;9.30;99.90
61392;DHT22;47261;52.892;5.738;2024-03-02T02:05:44;9.30;99.90
61392;DHT22;47261;52.892;5.738;2024-03-02T02:08:09;9.30;99.90
61392;DHT22;47261;52.892;5.738;2024-03-02T02:10:36;9.40;99.90
61392;DHT22;47261;52.892;5.738;2024-03-02T02:13:01;9.50;99.90
61392;DHT22;47261;52.892;5.738;2024-03-02T02:15:29;9.50;99.90
61392;DHT22;47261;52.892;5.738;2024-03-02T02:17:55;9.50;99.90
61392;DHT22;47261;52.892;5.738;2024-03-02T02:20:21;9.50;99.90
61392;DHT22;47261;52.892;5.738;2024-03-02T02:22:59;9.50;99.90
61392;DHT22;47261;52.892;5.738;2024-03-02T02:25:25;9.50;99.90
61392;DHT22;47261;52.892;5.738;2024-03-02T02:27:51;9.50;99.90
61392;DHT22;47261;52.892;5.738;2024-03-02T02:30:30;9.50;99.90
61392;DHT22;47261;52.892;5.738;2024-03-02T02:32:56;9.50;99.90
61392;DHT22;47261;52.892;5.738;2024-03-02T02:35:22;9.50;99.90
61392;DHT22;47261;52.892;5.738;2024-03-02T02:37:50;9.50;99.90
61392;DHT22;47261;52.892;5.738;2024-03-02T02:40:17;9.50;99.90
61392;DHT22;47261;52.892;5.738;2024-03-02T02:42:44;9.50;99.90
61392;DHT22;47261;52.892;5.738;2024-03-02T02:45:10;9.50;99.90
61392;DHT22;47261;52.892;5.738;2024-03-02T02:47:38;9.50;99.90
61392;DHT22;47261;52.892;5.738;2024-03-02T02:50:04;9.60;99.90
61392;DHT22;47261;52.892;5.738;2024-03-02T02:52:33;9.60;99.90
61392;DHT22;47261;52.892;5.738;2024-03-02T02:55:01;9.60;99.90
61392;DHT22;47261;52.892;5.738;2024-03-02T02:57:28;9.60;99.90
61392;DHT22;47261;52.892;5.738;2024-03-02T02:59:56;9.50;99.90
61392;DHT22;47261;52.892;5.738;2024-03-02T03:02:21;9.50;99.90
61392;DHT22;47261;52.892;5.738;2024-03-02T03:04:47;9.50;99.90
61392;DHT22;47261;52.892;5.738;2024-03-02T03:07:13;9.50;99.90
61392;DHT22;47261;52.892;5.738;2024-03-02T03:09:38;9.50;99.90
61392;DHT22;47261;52.892;5.738;2024-03-02T03:12:04;9.50;99.90
61392;DHT22;47261;52.892;5.738;2024-03-02T03:14:30;9.50;99.90
61392;DHT22;47261;52.892;5.738;2024-03-02T03:16:55;9.50;99.90
61392;DHT22;47261;52.892;5.738;2024-03-02T03:19:21;9.40;99.90
61392;DHT22;47261;52.892;5.738;2024-03-02T03:21:46;9.40;99.90
61392;DHT22;47261;52.892;5.738;2024-03-02T03:24:12;9.40;99.90
61392;DHT22;47261;52.892;5.738;2024-03-02T03:26:38;9.40;99.90
61392;DHT22;47261;52.892;5.738;2024-03-02T03:29:03;9.40;99.90
61392;DHT22;47261;52.892;5.738;2024-03-02T03:31:29;9.30;99.90
61392;DHT22;47261;52.892;5.738;2024-03-02T03:33:55;9.30;99.90
61392;DHT22;47261;52.892;5.738;2024-03-02T03:36:20;9.30;99.90
61392;DHT22;47261;52.892;5.738;2024-03-02T03:38:46;9.20;99.90
61392;DHT22;47261;52.892;5.738;2024-03-02T03:41:12;9.20;99.90
61392;DHT22;47261;52.892;5.738;2024-03-02T03:43:37;9.20;99.90
61392;DHT22;47261;52.892;5.738;2024-03-02T03:46:03;9.10;99.90
61392;DHT22;47261;52.892;5.738;2024-03-02T03:48:29;9.10;99.90
61392;DHT22;47261;52.892;5.738;2024-03-02T03:50:56;9.10;99.90
61392;DHT22;47261;52.892;5.738;2024-03-02T03:53:22;9.00;99.90
61392;DHT22;47261;52.892;5.738;2024-03-02T03:55:48;9.00;99.90
61392;DHT22;47261;52.892;5.738;2024-03-02T03:58:15;8.90;99.90
61392;DHT22;47261;52.892;5.738;2024-03-02T04:00:42;8.90;99.90
61392;DHT22;47261;52.892;5.738;2024-03-02T04:03:08;8.90;99.90
61392;DHT22;47261;52.892;5.738;2024-03-02T04:05:33;8.80;99.90
61392;DHT22;47261;52.892;5.738;2024-03-02T04:07:59;8.80;99.90
61392;DHT22;47261;52.892;5.738;2024-03-02T04:10:26;8.80;99.90
61392;DHT22;47261;52.892;5.738;2024-03-02T04:12:51;8.70;99.90
61392;DHT22;47261;52.892;5.738;2024-03-02T04:15:17;8.70;99.90
61392;DHT22;47261;52.892;5.738;2024-03-02T04:17:44;8.70;99.90
61392;DHT22;47261;52.892;5.738;2024-03-02T04:20:10;8.60;99.90
61392;DHT22;47261;52.892;5.738;2024-03-02T04:22:38;8.60;99.90
61392;DHT22;47261;52.892;5.738;2024-03-02T04:25:04;8.60;99.90
61392;DHT22;47261;52.892;5.738;2024-03-02T04:27:30;8.50;99.90
61392;DHT22;47261;52.892;5.738;2024-03-02T04:29:57;8.50;99.90
61392;DHT22;47261;52.892;5.738;2024-03-02T04:32:23;8.50;99.90
61392;DHT22;47261;52.892;5.738;2024-03-02T04:34:48;8.40;99.90
61392;DHT22;47261;52.892;5.738;2024-03-02T04:37:14;8.30;99.90
61392;DHT22;47261;52.892;5.738;2024-03-02T04:39:40;8.30;99.90
61392;DHT22;47261;52.892;5.738;2024-03-02T04:42:06;8.30;99.90
61392;DHT22;47261;52.892;5.738;2024-03-02T04:44:31;8.20;99.90
61392;DHT22;47261;52.892;5.738;2024-03-02T04:46:57;8.20;99.90
61392;DHT22;47261;52.892;5.738;2024-03-02T04:49:23;8.10;99.90
61392;DHT22;47261;52.892;5.738;2024-03-02T04:51:49;8.10;99.90
61392;DHT22;47261;52.892;5.738;2024-03-02T04:54:14;8.10;99.90
61392;DHT22;47261;52.892;5.738;2024-03-02T04:56:40;8.00;99.90
61392;DHT22;47261;52.892;5.738;2024-03-02T04:59:10;8.00;99.90
61392;DHT22;47261;52.892;5.738;2024-03-02T05:01:36;7.90;99.90
61392;DHT22;47261;52.892;5.738;2024-03-02T05:04:02;7.90;99.90
61392;DHT22;47261;52.892;5.738;2024-03-02T05:06:27;7.90;99.90
61392;DHT22;47261;52.892;5.738;2024-03-02T05:08:53;7.80;99.90
61392;DHT22;47261;52.892;5.738;2024-03-02T05:11:18;7.70;99.90
61392;DHT22;47261;52.892;5.738;2024-03-02T05:14:03;7.70;99.90
61392;DHT22;47261;52.892;5.738;2024-03-02T05:16:28;7.70;99.90
61392;DHT22;47261;52.892;5.738;2024-03-02T05:18:54;7.60;99.90
61392;DHT22;47261;52.892;5.738;2024-03-02T05:21:19;7.60;99.90
61392;DHT22;47261;52.892;5.738;2024-03-02T05:23:45;7.60;99.90
61392;DHT22;47261;52.892;5.738;2024-03-02T05:26:11;7.50;99.90
61392;DHT22;47261;52.892;5.738;2024-03-02T05:28:39;7.50;99.90
61392;DHT22;47261;52.892;5.738;2024-03-02T05:31:05;7.50;99.90
61392;DHT22;47261;52.892;5.738;2024-03-02T05:33:30;7.50;99.90
61392;DHT22;47261;52.892;5.738;2024-03-02T05:35:58;7.40;99.90
61392;DHT22;47261;52.892;5.738;2024-03-02T05:38:24;7.40;99.90
61392;DHT22;47261;52.892;5.738;2024-03-02T05:40:50;7.30;99.90
61392;DHT22;47261;52.892;5.738;2024-03-02T05:43:15;7.30;99.90
61392;DHT22;47261;52.892;5.738;2024-03-02T05:45:41;7.30;99.90
61392;DHT22;47261;52.892;5.738;2024-03-02T05:48:07;7.20;99.90
61392;DHT22;47261;52.892;5.738;2024-03-02T05:50:33;7.20;99.90
61392;DHT22;47261;52.892;5.738;2024-03-02T05:52:58;7.20;99.90
61392;DHT22;47261;52.892;5.738;2024-03-02T05:55:24;7.20;99.90
61392;DHT22;47261;52.892;5.738;2024-03-02T05:57:50;7.10;99.90
61392;DHT22;47261;52.892;5.738;2024-03-02T06:00:34;7.10;99.90
61392;DHT22;47261;52.892;5.738;2024-03-02T06:02:59;7.10;99.90
61392;DHT22;47261;52.892;5.738;2024-03-02T06:05:25;7.10;99.90
61392;DHT22;47261;52.892;5.738;2024-03-02T06:07:51;7.10;99.90
61392;DHT22;47261;52.892;5.738;2024-03-02T06:10:16;7.10;99.90
61392;DHT22;47261;52.892;5.738;2024-03-02T06:12:43;7.00;99.90
61392;DHT22;47261;52.892;5.738;2024-03-02T06:15:09;7.00;99.90
61392;DHT22;47261;52.892;5.738;2024-03-02T06:17:35;7.00;99.90
61392;DHT22;47261;52.892;5.738;2024-03-02T06:20:01;7.00;99.90
61392;DHT22;47261;52.892;5.738;2024-03-02T06:22:27;6.90;99.90
61392;DHT22;47261;52.892;5.738;2024-03-02T06:24:53;6.90;99.90
61392;DHT22;47261;52.892;5.738;2024-03-02T06:27:18;6.90;99.90
61392;DHT22;47261;52.892;5.738;2024-03-02T06:29:44;6.80;99.90
61392;DHT22;47261;52.892;5.738;2024-03-02T06:32:10;6.80;99.90
61392;DHT22;47261;52.892;5.738;2024-03-02T06:34:35;6.80;99.90
61392;DHT22;47261;52.892;5.738;2024-03-02T06:37:01;6.80;99.90
61392;DHT22;47261;52.892;5.738;2024-03-02T06:39:26;6.80;99.90
61392;DHT22;47261;52.892;5.738;2024-03-02T06:41:52;6.80;99.90
61392;DHT22;47261;52.892;5.738;2024-03-02T06:44:17;6.80;99.90
61392;DHT22;47261;52.892;5.738;2024-03-02T06:46:43;6.80;99.90
61392;DHT22;47261;52.892;5.738;2024-03-02T06:49:09;6.80;99.90
61392;DHT22;47261;52.892;5.738;2024-03-02T06:51:36;6.80;99.90
61392;DHT22;47261;52.892;5.738;2024-03-02T06:54:01;6.80;99.90
61392;DHT22;47261;52.892;5.738;2024-03-02T06:56:27;6.80;99.90
61392;DHT22;47261;52.892;5.738;2024-03-02T06:58:53;6.80;99.90
61392;DHT22;47261;52.892;5.738;2024-03-02T07:01:18;6.80;99.90
61392;DHT22;47261;52.892;5.738;2024-03-02T07:03:45;6.90;99.90
61392;DHT22;47261;52.892;5.738;2024-03-02T07:06:11;6.90;99.90
61392;DHT22;47261;52.892;5.738;2024-03-02T07:08:37;7.00;99.90
61392;DHT22;47261;52.892;5.738;2024-03-02T07:11:02;7.00;99.90
61392;DHT22;47261;52.892;5.738;2024-03-02T07:13:28;7.10;99.90
61392;DHT22;47261;52.892;5.738;2024-03-02T07:15:53;7.20;99.90
61392;DHT22;47261;52.892;5.738;2024-03-02T07:18:29;7.20;99.90
61392;DHT22;47261;52.892;5.738;2024-03-02T07:20:56;7.30;99.90
61392;DHT22;47261;52.892;5.738;2024-03-02T07:23:23;7.30;99.90
61392;DHT22;47261;52.892;5.738;2024-03-02T07:25:52;7.40;99.90
61392;DHT22;47261;52.892;5.738;2024-03-02T07:28:24;7.50;99.90
61392;DHT22;47261;52.892;5.738;2024-03-02T07:31:03;7.50;99.90
61392;DHT22;47261;52.892;5.738;2024-03-02T07:33:30;7.70;99.90
61392;DHT22;47261;52.892;5.738;2024-03-02T07:35:56;7.80;99.90
61392;DHT22;47261;52.892;5.738;2024-03-02T07:38:22;7.90;99.90
61392;DHT22;47261;52.892;5.738;2024-03-02T07:40:48;8.00;99.90
61392;DHT22;47261;52.892;5.738;2024-03-02T07:43:18;8.20;99.90
61392;DHT22;47261;52.892;5.738;2024-03-02T07:45:45;8.30;99.90
61392;DHT22;47261;52.892;5.738;2024-03-02T07:48:10;8.50;99.90
61392;DHT22;47261;52.892;5.738;2024-03-02T07:50:36;8.60;99.90
61392;DHT22;47261;52.892;5.738;2024-03-02T07:53:03;8.70;99.90
61392;DHT22;47261;52.892;5.738;2024-03-02T07:55:29;8.80;99.90
61392;DHT22;47261;52.892;5.738;2024-03-02T07:57:56;8.90;99.90
61392;DHT22;47261;52.892;5.738;2024-03-02T08:00:22;9.10;99.90
61392;DHT22;47261;52.892;5.738;2024-03-02T08:02:48;9.20;99.90
61392;DHT22;47261;52.892;5.738;2024-03-02T08:05:14;9.40;99.90
61392;DHT22;47261;52.892;5.738;2024-03-02T08:07:40;9.50;99.90
61392;DHT22;47261;52.892;5.738;2024-03-02T08:10:06;9.70;99.90
61392;DHT22;47261;52.892;5.738;2024-03-02T08:12:32;9.90;99.90
61392;DHT22;47261;52.892;5.738;2024-03-02T08:14:58;10.00;99.90
61392;DHT22;47261;52.892;5.738;2024-03-02T08:17:23;10.10;99.90
61392;DHT22;47261;52.892;5.738;2024-03-02T08:19:49;10.20;99.90
61392;DHT22;47261;52.892;5.738;2024-03-02T08:22:15;10.30;99.90
61392;DHT22;47261;52.892;5.738;2024-03-02T08:24:41;10.40;99.90
61392;DHT22;47261;52.892;5.738;2024-03-02T08:27:06;10.50;99.90
61392;DHT22;47261;52.892;5.738;2024-03-02T08:29:32;10.60;99.90
61392;DHT22;47261;52.892;5.738;2024-03-02T08:31:58;10.70;99.90
61392;DHT22;47261;52.892;5.738;2024-03-02T08:34:24;10.80;99.90
61392;DHT22;47261;52.892;5.738;2024-03-02T08:36:49;10.90;99.90
61392;DHT22;47261;52.892;5.738;2024-03-02T08:39:15;10.90;99.90
61392;DHT22;47261;52.892;5.738;2024-03-02T08:41:47;10.90;99.90
61392;DHT22;47261;52.892;5.738;2024-03-02T08:44:13;11.00;99.90
61392;DHT22;47261;52.892;5.738;2024-03-02T08:46:40;11.00;99.90
61392;DHT22;47261;52.892;5.738;2024-03-02T08:49:06;10.90;99.90
61392;DHT22;47261;52.892;5.738;2024-03-02T08:51:32;10.90;99.90
61392;DHT22;47261;52.892;5.738;2024-03-02T08:53:58;10.90;99.90
61392;DHT22;47261;52.892;5.738;2024-03-02T08:56:24;10.90;99.90
61392;DHT22;47261;52.892;5.738;2024-03-02T08:58:53;10.90;99.90
61392;DHT22;47261;52.892;5.738;2024-03-02T09:01:19;10.90;99.90
61392;DHT22;47261;52.892;5.738;2024-03-02T09:03:47;10.90;99.90
61392;DHT22;47261;52.892;5.738;2024-03-02T09:06:15;10.90;99.90
61392;DHT22;47261;52.892;5.738;2024-03-02T09:08:42;10.90;99.90
61392;DHT22;47261;52.892;5.738;2024-03-02T09:11:10;11.00;99.90
61392;DHT22;47261;52.892;5.738;2024-03-02T09:13:36;11.10;99.90
61392;DHT22;47261;52.892;5.738;2024-03-02T09:16:02;11.20;99.80
61392;DHT22;47261;52.892;5.738;2024-03-02T09:18:29;11.30;99.90
61392;DHT22;47261;52.892;5.738;2024-03-02T09:20:55;11.40;99.90
61392;DHT22;47261;52.892;5.738;2024-03-02T09:23:21;11.50;99.50
61392;DHT22;47261;52.892;5.738;2024-03-02T09:25:46;11.50;99.40
61392;DHT22;47261;52.892;5.738;2024-03-02T09:28:12;11.60;99.20
61392;DHT22;47261;52.892;5.738;2024-03-02T09:30:38;11.70;99.20
61392;DHT22;47261;52.892;5.738;2024-03-02T09:33:04;11.70;98.90
61392;DHT22;47261;52.892;5.738;2024-03-02T09:35:29;11.70;98.70
61392;DHT22;47261;52.892;5.738;2024-03-02T09:37:55;11.70;98.80
61392;DHT22;47261;52.892;5.738;2024-03-02T09:40:22;11.80;98.80
61392;DHT22;47261;52.892;5.738;2024-03-02T09:42:48;11.90;98.90
61392;DHT22;47261;52.892;5.738;2024-03-02T09:45:23;11.90;98.80
61392;DHT22;47261;52.892;5.738;2024-03-02T09:47:49;12.00;98.50
61392;DHT22;47261;52.892;5.738;2024-03-02T09:50:14;12.10;98.30
61392;DHT22;47261;52.892;5.738;2024-03-02T09:52:42;12.20;98.60
61392;DHT22;47261;52.892;5.738;2024-03-02T09:55:08;12.30;98.20
61392;DHT22;47261;52.892;5.738;2024-03-02T09:57:34;12.40;98.00
61392;DHT22;47261;52.892;5.738;2024-03-02T09:59:59;12.50;98.00
61392;DHT22;47261;52.892;5.738;2024-03-02T10:02:26;12.60;97.50
61392;DHT22;47261;52.892;5.738;2024-03-02T10:04:51;12.70;97.30
61392;DHT22;47261;52.892;5.738;2024-03-02T10:07:18;12.70;97.20
61392;DHT22;47261;52.892;5.738;2024-03-02T10:09:46;12.70;96.70
61392;DHT22;47261;52.892;5.738;2024-03-02T10:12:13;12.70;96.50
61392;DHT22;47261;52.892;5.738;2024-03-02T10:14:39;12.80;96.70
61392;DHT22;47261;52.892;5.738;2024-03-02T10:17:09;12.90;96.60
61392;DHT22;47261;52.892;5.738;2024-03-02T10:19:36;13.00;96.40
61392;DHT22;47261;52.892;5.738;2024-03-02T10:22:04;13.00;95.60
61392;DHT22;47261;52.892;5.738;2024-03-02T10:24:44;13.10;95.30
61392;DHT22;47261;52.892;5.738;2024-03-02T10:27:18;13.20;95.10
61392;DHT22;47261;52.892;5.738;2024-03-02T10:29:48;13.20;95.30
61392;DHT22;47261;52.892;5.738;2024-03-02T10:32:14;13.30;94.90
61392;DHT22;47261;52.892;5.738;2024-03-02T10:34:41;13.30;94.70
61392;DHT22;47261;52.892;5.738;2024-03-02T10:37:07;13.40;94.20
61392;DHT22;47261;52.892;5.738;2024-03-02T10:39:34;13.50;94.10
61392;DHT22;47261;52.892;5.738;2024-03-02T10:42:02;13.70;93.70
61392;DHT22;47261;52.892;5.738;2024-03-02T10:44:31;13.80;92.80
61392;DHT22;47261;52.892;5.738;2024-03-02T10:47:00;13.80;92.90
61392;DHT22;47261;52.892;5.738;2024-03-02T10:49:27;13.90;91.50
61392;DHT22;47261;52.892;5.738;2024-03-02T10:51:54;13.90;91.30
61392;DHT22;47261;52.892;5.738;2024-03-02T10:54:20;13.80;91.20
61392;DHT22;47261;52.892;5.738;2024-03-02T10:56:53;13.80;91.50
61392;DHT22;47261;52.892;5.738;2024-03-02T11:01:55;14.00;91.70
61392;DHT22;47261;52.892;5.738;2024-03-02T11:04:21;14.30;91.50
61392;DHT22;47261;52.892;5.738;2024-03-02T11:06:51;14.30;90.00
61392;DHT22;47261;52.892;5.738;2024-03-02T11:09:20;14.40;88.30
61392;DHT22;47261;52.892;5.738;2024-03-02T11:12:00;14.40;89.30
61392;DHT22;47261;52.892;5.738;2024-03-02T11:14:30;14.50;88.70
61392;DHT22;47261;52.892;5.738;2024-03-02T11:16:58;14.50;88.20
61392;DHT22;47261;52.892;5.738;2024-03-02T11:19:25;14.40;88.10
61392;DHT22;47261;52.892;5.738;2024-03-02T11:21:51;14.30;87.10
61392;DHT22;47261;52.892;5.738;2024-03-02T11:26:49;14.20;88.10
61392;DHT22;47261;52.892;5.738;2024-03-02T11:32:04;14.20;88.40
61392;DHT22;47261;52.892;5.738;2024-03-02T11:34:34;14.20;87.70
61392;DHT22;47261;52.892;5.738;2024-03-02T11:37:03;14.20;88.00
61392;DHT22;47261;52.892;5.738;2024-03-02T11:39:30;14.20;86.30
61392;DHT22;47261;52.892;5.738;2024-03-02T11:41:57;14.20;85.20
61392;DHT22;47261;52.892;5.738;2024-03-02T11:44:28;14.10;83.10
61392;DHT22;47261;52.892;5.738;2024-03-02T11:47:00;14.10;83.20
61392;DHT22;47261;52.892;5.738;2024-03-02T11:49:48;14.00;83.30
61392;DHT22;47261;52.892;5.738;2024-03-02T11:52:15;14.00;83.60
61392;DHT22;47261;52.892;5.738;2024-03-02T11:54:44;14.00;82.10
61392;DHT22;47261;52.892;5.738;2024-03-02T11:57:18;13.90;81.00
61392;DHT22;47261;52.892;5.738;2024-03-02T11:59:44;13.90;82.00
61392;DHT22;47261;52.892;5.738;2024-03-02T12:02:21;14.00;81.90
61392;DHT22;47261;52.892;5.738;2024-03-02T12:04:48;14.10;82.60
61392;DHT22;47261;52.892;5.738;2024-03-02T12:07:22;14.10;80.60
61392;DHT22;47261;52.892;5.738;2024-03-02T12:09:48;14.10;81.40
61392;DHT22;47261;52.892;5.738;2024-03-02T12:12:14;14.10;81.40
61392;DHT22;47261;52.892;5.738;2024-03-02T12:14:53;14.10;79.80
61392;DHT22;47261;52.892;5.738;2024-03-02T12:17:22;14.00;79.40
61392;DHT22;47261;52.892;5.738;2024-03-02T12:19:48;14.00;80.30
61392;DHT22;47261;52.892;5.738;2024-03-02T12:22:14;14.00;80.70
61392;DHT22;47261;52.892;5.738;2024-03-02T12:24:41;14.10;80.10
61392;DHT22;47261;52.892;5.738;2024-03-02T12:27:07;14.20;81.00
61392;DHT22;47261;52.892;5.738;2024-03-02T12:29:34;14.20;81.30
61392;DHT22;47261;52.892;5.738;2024-03-02T12:32:00;14.20;80.20
61392;DHT22;47261;52.892;5.738;2024-03-02T12:34:27;14.30;81.70
61392;DHT22;47261;52.892;5.738;2024-03-02T12:36:53;14.50;81.70
61392;DHT22;47261;52.892;5.738;2024-03-02T12:39:19;14.60;81.00
61392;DHT22;47261;52.892;5.738;2024-03-02T12:41:46;14.60;80.20
61392;DHT22;47261;52.892;5.738;2024-03-02T12:44:12;14.50;79.20
61392;DHT22;47261;52.892;5.738;2024-03-02T12:46:37;14.50;80.20
61392;DHT22;47261;52.892;5.738;2024-03-02T12:49:11;14.50;80.30
61392;DHT22;47261;52.892;5.738;2024-03-02T12:51:38;14.50;79.20
61392;DHT22;47261;52.892;5.738;2024-03-02T12:54:06;14.50;78.70
61392;DHT22;47261;52.892;5.738;2024-03-02T12:56:32;14.50;80.00
61392;DHT22;47261;52.892;5.738;2024-03-02T12:58:58;14.60;81.60
61392;DHT22;47261;52.892;5.738;2024-03-02T13:01:25;14.70;81.10
61392;DHT22;47261;52.892;5.738;2024-03-02T13:03:52;14.70;80.60
61392;DHT22;47261;52.892;5.738;2024-03-02T13:06:18;14.70;81.20
61392;DHT22;47261;52.892;5.738;2024-03-02T13:08:45;14.70;81.90
61392;DHT22;47261;52.892;5.738;2024-03-02T13:11:12;14.60;80.70
61392;DHT22;47261;52.892;5.738;2024-03-02T13:13:39;14.50;79.70
61392;DHT22;47261;52.892;5.738;2024-03-02T13:16:12;14.30;80.60
61392;DHT22;47261;52.892;5.738;2024-03-02T13:18:41;14.30;81.40
61392;DHT22;47261;52.892;5.738;2024-03-02T13:21:08;14.20;81.30
61392;DHT22;47261;52.892;5.738;2024-03-02T13:23:33;14.10;81.90
61392;DHT22;47261;52.892;5.738;2024-03-02T13:25:59;14.10;81.80
61392;DHT22;47261;52.892;5.738;2024-03-02T13:28:25;14.20;81.90
61392;DHT22;47261;52.892;5.738;2024-03-02T13:30:51;14.30;82.30
61392;DHT22;47261;52.892;5.738;2024-03-02T13:33:17;14.30;82.10
61392;DHT22;47261;52.892;5.738;2024-03-02T13:35:49;14.40;81.50
61392;DHT22;47261;52.892;5.738;2024-03-02T13:38:19;14.30;81.30
61392;DHT22;47261;52.892;5.738;2024-03-02T13:40:46;14.20;80.00
61392;DHT22;47261;52.892;5.738;2024-03-02T13:43:12;14.10;79.90
61392;DHT22;47261;52.892;5.738;2024-03-02T13:45:41;14.00;78.60
61392;DHT22;47261;52.892;5.738;2024-03-02T13:48:07;13.90;79.20
61392;DHT22;47261;52.892;5.738;2024-03-02T13:50:32;14.00;80.30
61392;DHT22;47261;52.892;5.738;2024-03-02T13:52:58;14.10;79.80
61392;DHT22;47261;52.892;5.738;2024-03-02T13:55:24;14.00;79.50
61392;DHT22;47261;52.892;5.738;2024-03-02T13:57:50;14.00;80.90
61392;DHT22;47261;52.892;5.738;2024-03-02T14:00:17;14.10;81.70
61392;DHT22;47261;52.892;5.738;2024-03-02T14:02:43;14.10;81.50
61392;DHT22;47261;52.892;5.738;2024-03-02T14:05:09;14.10;82.30
61392;DHT22;47261;52.892;5.738;2024-03-02T14:07:39;14.10;83.80
61392;DHT22;47261;52.892;5.738;2024-03-02T14:10:05;14.20;84.70
61392;DHT22;47261;52.892;5.738;2024-03-02T14:12:31;14.20;84.00
61392;DHT22;47261;52.892;5.738;2024-03-02T14:14:57;14.10;81.80
61392;DHT22;47261;52.892;5.738;2024-03-02T14:17:28;14.10;81.80
61392;DHT22;47261;52.892;5.738;2024-03-02T14:19:53;14.10;82.40
61392;DHT22;47261;52.892;5.738;2024-03-02T14:22:22;14.00;82.30
61392;DHT22;47261;52.892;5.738;2024-03-02T14:24:48;13.90;82.70
61392;DHT22;47261;52.892;5.738;2024-03-02T14:27:14;14.00;83.80
61392;DHT22;47261;52.892;5.738;2024-03-02T14:29:42;14.00;83.40
61392;DHT22;47261;52.892;5.738;2024-03-02T14:32:07;14.00;83.00
61392;DHT22;47261;52.892;5.738;2024-03-02T14:34:33;14.00;82.90
61392;DHT22;47261;52.892;5.738;2024-03-02T14:36:59;14.00;83.30
61392;DHT22;47261;52.892;5.738;2024-03-02T14:39:26;14.00;82.80
61392;DHT22;47261;52.892;5.738;2024-03-02T14:41:52;14.00;83.10
61392;DHT22;47261;52.892;5.738;2024-03-02T14:44:18;14.00;83.40
61392;DHT22;47261;52.892;5.738;2024-03-02T14:46:46;14.00;83.40
61392;DHT22;47261;52.892;5.738;2024-03-02T14:49:12;13.90;83.60
61392;DHT22;47261;52.892;5.738;2024-03-02T14:51:38;13.90;84.10
61392;DHT22;47261;52.892;5.738;2024-03-02T14:54:04;13.80;83.60
61392;DHT22;47261;52.892;5.738;2024-03-02T14:56:29;13.70;83.80
61392;DHT22;47261;52.892;5.738;2024-03-02T14:58:55;13.50;84.40
61392;DHT22;47261;52.892;5.738;2024-03-02T15:01:21;13.50;85.70
61392;DHT22;47261;52.892;5.738;2024-03-02T15:03:49;13.30;86.40
61392;DHT22;47261;52.892;5.738;2024-03-02T15:06:15;13.30;86.50
61392;DHT22;47261;52.892;5.738;2024-03-02T15:08:41;13.20;85.90
61392;DHT22;47261;52.892;5.738;2024-03-02T15:11:08;13.20;85.90
61392;DHT22;47261;52.892;5.738;2024-03-02T15:13:34;13.10;85.80
61392;DHT22;47261;52.892;5.738;2024-03-02T15:15:59;13.00;86.60
61392;DHT22;47261;52.892;5.738;2024-03-02T15:18:25;13.00;87.50
61392;DHT22;47261;52.892;5.738;2024-03-02T15:20:51;13.00;87.40
61392;DHT22;47261;52.892;5.738;2024-03-02T15:23:16;12.90;87.80
61392;DHT22;47261;52.892;5.738;2024-03-02T15:25:42;13.00;88.00
61392;DHT22;47261;52.892;5.738;2024-03-02T15:28:08;12.90;87.80
61392;DHT22;47261;52.892;5.738;2024-03-02T15:30:33;12.90;88.10
61392;DHT22;47261;52.892;5.738;2024-03-02T15:32:59;12.90;88.00
61392;DHT22;47261;52.892;5.738;2024-03-02T15:35:25;12.90;88.30
61392;DHT22;47261;52.892;5.738;2024-03-02T15:37:51;12.90;88.40
61392;DHT22;47261;52.892;5.738;2024-03-02T15:40:17;12.80;89.10
61392;DHT22;47261;52.892;5.738;2024-03-02T15:42:43;12.90;89.90
61392;DHT22;47261;52.892;5.738;2024-03-02T15:45:09;12.90;89.90
61392;DHT22;47261;52.892;5.738;2024-03-02T15:47:34;13.10;90.00
61392;DHT22;47261;52.892;5.738;2024-03-02T15:50:10;13.10;89.90
61392;DHT22;47261;52.892;5.738;2024-03-02T15:52:36;13.20;89.80